sensor_id;sensor_type;location;lat;lon;timestamp;pressure;altitude;pressure_sealevel;temperature;humidity
39197;BME280;42889;51.112;13.772;2022-08-03T00:00:24;99286.28;;;17.92;72.44
39197;BME280;42889;51.112;13.772;2022-08-03T00:02:51;99280.63;;;17.93;72.25
39197;BME280;42889;51.112;13.772;2022-08-03T00:05:18;99279.34;;;17.96;72.11
39197;BME280;42889;51.112;13.772;2022-08-03T00:07:45;99279.75;;;17.86;72.96
39197;BME280;42889;51.112;13.772;2022-08-03T00:10:13;99275.22;;;18.13;71.72
39197;BME280;42889;51.112;13.772;2022-08-03T00:12:40;99274.75;;;17.96;71.64
39197;BME280;42889;51.112;13.772;2022-08-03T00:15:07;99270.53;;;17.80;72.29
39197;BME280;42889;51.112;13.772;2022-08-03T00:17:40;99271.81;;;17.91;71.82
39197;BME280;42889;51.112;13.772;2022-08-03T00:20:20;99272.44;;;17.86;72.15
39197;BME280;42889;51.112;13.772;2022-08-03T00:22:48;99267.38;;;17.83;72.62
39197;BME280;42889;51.112;13.772;2022-08-03T00:25:15;99269.75;;;18.00;71.94
39197;BME280;42889;51.112;13.772;2022-08-03T00:27:41;99265.84;;;17.74;73.13
39197;BME280;42889;51.112;13.772;2022-08-03T00:30:09;99263.91;;;17.68;73.66
39197;BME280;42889;51.112;13.772;2022-08-03T00:32:35;99260.53;;;17.59;73.32
39197;BME280;42889;51.112;13.772;2022-08-03T00:35:04;99257.78;;;17.53;74.18
39197;BME280;42889;51.112;13.772;2022-08-03T00:37:34;99263.81;;;17.48;74.27
39197;BME280;42889;51.112;13.772;2022-08-03T00:40:11;99256.34;;;17.63;73.91
39197;BME280;42889;51.112;13.772;2022-08-03T00:43:05;99255.69;;;17.55;73.97
39197;BME280;42889;51.112;13.772;2022-08-03T00:45:35;99251.91;;;17.49;74.40
39197;BME280;42889;51.112;13.772;2022-08-03T00:48:04;99256.50;;;17.49;74.19
39197;BME280;42889;51.112;13.772;2022-08-03T00:50:33;99256.91;;;17.52;73.93
39197;BME280;42889;51.112;13.772;2022-08-03T00:53:02;99250.13;;;17.35;74.67
39197;BME280;42889;51.112;13.772;2022-08-03T00:55:30;99255.44;;;17.50;74.07
39197;BME280;42889;51.112;13.772;2022-08-03T00:57:58;99262.09;;;17.41;74.48
39197;BME280;42889;51.112;13.772;2022-08-03T01:00:26;99254.31;;;17.31;74.61
39197;BME280;42889;51.112;13.772;2022-08-03T01:02:53;99255.94;;;17.25;75.05
39197;BME280;42889;51.112;13.772;2022-08-03T01:05:20;99263.00;;;17.20;75.36
39197;BME280;42889;51.112;13.772;2022-08-03T01:11:00;99262.31;;;17.11;76.36
39197;BME280;42889;51.112;13.772;2022-08-03T01:17:01;99260.72;;;17.23;76.22
39197;BME280;42889;51.112;13.772;2022-08-03T01:19:51;99261.81;;;17.29;76.29
39197;BME280;42889;51.112;13.772;2022-08-03T01:25:33;99255.75;;;16.99;77.57
39197;BME280;42889;51.112;13.772;2022-08-03T01:28:36;99255.50;;;16.94;77.87
39197;BME280;42889;51.112;13.772;2022-08-03T01:31:06;99262.22;;;16.98;77.00
39197;BME280;42889;51.112;13.772;2022-08-03T01:33:36;99257.66;;;17.05;77.32
39197;BME280;42889;51.112;13.772;2022-08-03T01:36:06;99262.69;;;17.08;77.46
39197;BME280;42889;51.112;13.772;2022-08-03T01:38:35;99255.03;;;17.18;77.41
39197;BME280;42889;51.112;13.772;2022-08-03T01:41:15;99254.41;;;17.16;77.93
39197;BME280;42889;51.112;13.772;2022-08-03T01:43:44;99254.41;;;17.16;78.68
39197;BME280;42889;51.112;13.772;2022-08-03T01:46:36;99253.31;;;17.10;79.62
39197;BME280;42889;51.112;13.772;2022-08-03T01:49:06;99248.31;;;17.14;80.29
39197;BME280;42889;51.112;13.772;2022-08-03T01:51:36;99244.56;;;17.15;79.95
39197;BME280;42889;51.112;13.772;2022-08-03T01:54:24;99254.75;;;17.06;80.19
39197;BME280;42889;51.112;13.772;2022-08-03T01:56:53;99251.94;;;17.21;80.11
39197;BME280;42889;51.112;13.772;2022-08-03T01:59:24;99252.31;;;17.18;81.06
39197;BME280;42889;51.112;13.772;2022-08-03T02:01:52;99251.34;;;17.26;81.11
39197;BME280;42889;51.112;13.772;2022-08-03T02:04:41;99248.75;;;17.18;81.47
39197;BME280;42889;51.112;13.772;2022-08-03T02:07:09;99256.00;;;17.38;81.23
39197;BME280;42889;51.112;13.772;2022-08-03T02:09:39;99256.78;;;17.26;82.00
39197;BME280;42889;51.112;13.772;2022-08-03T02:12:08;99257.19;;;17.29;81.68
39197;BME280;42889;51.112;13.772;2022-08-03T02:14:37;99246.84;;;17.11;80.82
39197;BME280;42889;51.112;13.772;2022-08-03T02:17:08;99240.91;;;17.01;81.11
39197;BME280;42889;51.112;13.772;2022-08-03T02:19:35;99246.75;;;16.98;80.77
39197;BME280;42889;51.112;13.772;2022-08-03T02:22:04;99238.28;;;17.15;80.34
39197;BME280;42889;51.112;13.772;2022-08-03T02:24:33;99243.41;;;17.03;81.02
39197;BME280;42889;51.112;13.772;2022-08-03T02:27:02;99241.69;;;16.95;81.77
39197;BME280;42889;51.112;13.772;2022-08-03T02:29:33;99237.97;;;17.03;82.14
39197;BME280;42889;51.112;13.772;2022-08-03T02:32:08;99233.16;;;16.98;82.77
39197;BME280;42889;51.112;13.772;2022-08-03T02:34:36;99227.59;;;16.85;83.50
39197;BME280;42889;51.112;13.772;2022-08-03T02:37:05;99233.78;;;17.28;83.77
39197;BME280;42889;51.112;13.772;2022-08-03T02:39:34;99231.56;;;17.45;83.31
39197;BME280;42889;51.112;13.772;2022-08-03T02:42:02;99238.91;;;17.51;83.06
39197;BME280;42889;51.112;13.772;2022-08-03T02:44:30;99235.22;;;17.59;82.71
39197;BME280;42889;51.112;13.772;2022-08-03T02:47:05;99231.00;;;17.56;82.86
39197;BME280;42889;51.112;13.772;2022-08-03T02:49:34;99241.72;;;17.64;82.89
39197;BME280;42889;51.112;13.772;2022-08-03T02:52:18;99229.56;;;17.60;83.03
39197;BME280;42889;51.112;13.772;2022-08-03T02:54:46;99234.78;;;17.62;83.02
39197;BME280;42889;51.112;13.772;2022-08-03T02:57:15;99228.28;;;17.56;83.16
39197;BME280;42889;51.112;13.772;2022-08-03T02:59:45;99240.03;;;17.63;82.74
39197;BME280;42889;51.112;13.772;2022-08-03T03:02:13;99236.13;;;17.73;82.53
39197;BME280;42889;51.112;13.772;2022-08-03T03:04:41;99231.69;;;17.65;82.51
39197;BME280;42889;51.112;13.772;2022-08-03T03:07:29;99234.75;;;17.55;83.16
39197;BME280;42889;51.112;13.772;2022-08-03T03:10:07;99236.03;;;17.59;82.57
39197;BME280;42889;51.112;13.772;2022-08-03T03:12:36;99239.41;;;17.68;82.42
39197;BME280;42889;51.112;13.772;2022-08-03T03:15:04;99239.81;;;17.58;82.81
39197;BME280;42889;51.112;13.772;2022-08-03T03:17:32;99237.81;;;17.74;82.20
39197;BME280;42889;51.112;13.772;2022-08-03T03:20:00;99235.47;;;17.71;82.05
39197;BME280;42889;51.112;13.772;2022-08-03T03:22:28;99236.47;;;17.63;82.69
39197;BME280;42889;51.112;13.772;2022-08-03T03:24:56;99239.00;;;17.64;83.07
39197;BME280;42889;51.112;13.772;2022-08-03T03:27:23;99234.41;;;17.65;82.59
39197;BME280;42889;51.112;13.772;2022-08-03T03:29:52;99239.19;;;17.63;82.61
39197;BME280;42889;51.112;13.772;2022-08-03T03:32:19;99235.69;;;17.69;82.18
39197;BME280;42889;51.112;13.772;2022-08-03T03:34:46;99225.16;;;17.59;82.99
39197;BME280;42889;51.112;13.772;2022-08-03T03:37:13;99237.50;;;17.62;82.82
39197;BME280;42889;51.112;13.772;2022-08-03T03:39:40;99237.28;;;17.57;82.82
39197;BME280;42889;51.112;13.772;2022-08-03T03:42:06;99230.88;;;17.71;82.05
39197;BME280;42889;51.112;13.772;2022-08-03T03:44:33;99233.09;;;17.54;82.89
39197;BME280;42889;51.112;13.772;2022-08-03T03:46:59;99235.78;;;17.48;83.20
39197;BME280;42889;51.112;13.772;2022-08-03T03:49:26;99240.78;;;17.44;83.48
39197;BME280;42889;51.112;13.772;2022-08-03T03:51:54;99238.16;;;17.64;82.51
39197;BME280;42889;51.112;13.772;2022-08-03T03:54:20;99232.28;;;17.60;82.36
39197;BME280;42889;51.112;13.772;2022-08-03T03:56:51;99231.00;;;17.56;82.60
39197;BME280;42889;51.112;13.772;2022-08-03T03:59:17;99235.59;;;17.56;82.37
39197;BME280;42889;51.112;13.772;2022-08-03T04:01:44;99235.59;;;17.56;82.84
39197;BME280;42889;51.112;13.772;2022-08-03T04:04:11;99243.19;;;17.67;81.59
39197;BME280;42889;51.112;13.772;2022-08-03T04:06:56;99235.84;;;17.61;81.87
39197;BME280;42889;51.112;13.772;2022-08-03T04:09:42;99237.75;;;17.67;81.67
39197;BME280;42889;51.112;13.772;2022-08-03T04:12:40;99238.16;;;17.64;81.71
39197;BME280;42889;51.112;13.772;2022-08-03T04:15:18;99245.44;;;17.57;81.77
39197;BME280;42889;51.112;13.772;2022-08-03T04:17:47;99249.09;;;17.71;81.47
39197;BME280;42889;51.112;13.772;2022-08-03T04:20:17;99245.97;;;17.74;81.24
39197;BME280;42889;51.112;13.772;2022-08-03T04:22:47;99250.06;;;17.63;81.53
39197;BME280;42889;51.112;13.772;2022-08-03T04:25:17;99242.59;;;17.72;81.09
39197;BME280;42889;51.112;13.772;2022-08-03T04:27:46;99257.00;;;17.65;81.66
39197;BME280;42889;51.112;13.772;2022-08-03T04:30:35;99249.53;;;17.74;81.08
39197;BME280;42889;51.112;13.772;2022-08-03T04:33:03;99256.41;;;17.70;81.46
39197;BME280;42889;51.112;13.772;2022-08-03T04:35:32;99253.94;;;17.75;81.25
39197;BME280;42889;51.112;13.772;2022-08-03T04:38:21;99264.19;;;17.73;81.70
39197;BME280;42889;51.112;13.772;2022-08-03T04:40:49;99256.91;;;17.80;80.69
39197;BME280;42889;51.112;13.772;2022-08-03T04:43:17;99264.03;;;17.81;80.80
39197;BME280;42889;51.112;13.772;2022-08-03T04:45:46;99258.97;;;17.78;81.36
39197;BME280;42889;51.112;13.772;2022-08-03T04:48:14;99264.66;;;17.83;80.98
39197;BME280;42889;51.112;13.772;2022-08-03T04:50:42;99259.22;;;17.83;80.63
39197;BME280;42889;51.112;13.772;2022-08-03T04:53:09;99254.84;;;17.89;79.96
39197;BME280;42889;51.112;13.772;2022-08-03T04:55:36;99263.44;;;17.93;79.87
39197;BME280;42889;51.112;13.772;2022-08-03T04:58:03;99268.31;;;18.10;78.93
39197;BME280;42889;51.112;13.772;2022-08-03T05:00:29;99268.78;;;18.21;77.91
39197;BME280;42889;51.112;13.772;2022-08-03T05:02:56;99267.50;;;18.16;77.56
39197;BME280;42889;51.112;13.772;2022-08-03T05:05:23;99266.28;;;18.26;77.10
39197;BME280;42889;51.112;13.772;2022-08-03T05:07:50;99266.50;;;18.31;77.02
39197;BME280;42889;51.112;13.772;2022-08-03T05:10:18;99265.06;;;18.41;76.01
39197;BME280;42889;51.112;13.772;2022-08-03T05:12:46;99265.91;;;18.62;75.05
39197;BME280;42889;51.112;13.772;2022-08-03T05:15:13;99265.09;;;18.61;75.57
39197;BME280;42889;51.112;13.772;2022-08-03T05:17:41;99262.19;;;18.63;75.69
39197;BME280;42889;51.112;13.772;2022-08-03T05:20:08;99257.81;;;18.82;75.67
39197;BME280;42889;51.112;13.772;2022-08-03T05:22:35;99259.06;;;18.86;74.52
39197;BME280;42889;51.112;13.772;2022-08-03T05:25:02;99269.13;;;18.99;73.68
39197;BME280;42889;51.112;13.772;2022-08-03T05:27:29;99270.78;;;19.06;73.30
39197;BME280;42889;51.112;13.772;2022-08-03T05:29:55;99257.16;;;19.19;72.39
39197;BME280;42889;51.112;13.772;2022-08-03T05:32:42;99262.59;;;19.33;72.49
39197;BME280;42889;51.112;13.772;2022-08-03T05:35:09;99262.38;;;19.47;71.79
39197;BME280;42889;51.112;13.772;2022-08-03T05:37:55;99259.00;;;19.59;71.02
39197;BME280;42889;51.112;13.772;2022-08-03T05:40:22;99261.47;;;19.80;70.78
39197;BME280;42889;51.112;13.772;2022-08-03T05:42:49;99261.00;;;19.90;69.54
39197;BME280;42889;51.112;13.772;2022-08-03T05:45:15;99263.50;;;19.98;69.59
39197;BME280;42889;51.112;13.772;2022-08-03T05:47:45;99265.75;;;20.08;68.28
39197;BME280;42889;51.112;13.772;2022-08-03T05:50:12;99266.13;;;20.18;68.26
39197;BME280;42889;51.112;13.772;2022-08-03T05:52:39;99268.41;;;20.27;67.82
39197;BME280;42889;51.112;13.772;2022-08-03T05:55:07;99268.09;;;20.42;66.04
39197;BME280;42889;51.112;13.772;2022-08-03T05:57:34;99272.69;;;20.55;65.25
39197;BME280;42889;51.112;13.772;2022-08-03T06:00:04;99260.03;;;20.61;64.84
39197;BME280;42889;51.112;13.772;2022-08-03T06:02:31;99269.03;;;20.68;64.85
39197;BME280;42889;51.112;13.772;2022-08-03T06:04:57;99261.94;;;20.85;63.43
39197;BME280;42889;51.112;13.772;2022-08-03T06:07:24;99265.84;;;20.96;63.96
39197;BME280;42889;51.112;13.772;2022-08-03T06:09:51;99270.25;;;20.97;63.93
39197;BME280;42889;51.112;13.772;2022-08-03T06:12:37;99265.91;;;21.14;62.30
39197;BME280;42889;51.112;13.772;2022-08-03T06:15:07;99268.09;;;21.30;60.96
39197;BME280;42889;51.112;13.772;2022-08-03T06:17:44;99269.91;;;21.43;60.97
39197;BME280;42889;51.112;13.772;2022-08-03T06:20:17;99273.63;;;21.49;60.05
39197;BME280;42889;51.112;13.772;2022-08-03T06:22:45;99264.66;;;21.60;59.15
39197;BME280;42889;51.112;13.772;2022-08-03T06:25:16;99272.78;;;21.67;59.06
39197;BME280;42889;51.112;13.772;2022-08-03T06:27:46;99273.47;;;21.80;58.95
39197;BME280;42889;51.112;13.772;2022-08-03T06:30:13;99274.84;;;21.90;58.39
39197;BME280;42889;51.112;13.772;2022-08-03T06:32:46;99268.34;;;22.02;57.15
39197;BME280;42889;51.112;13.772;2022-08-03T06:35:18;99273.97;;;22.14;56.91
39197;BME280;42889;51.112;13.772;2022-08-03T06:37:46;99268.53;;;22.26;56.37
39197;BME280;42889;51.112;13.772;2022-08-03T06:40:15;99269.66;;;22.37;56.33
39197;BME280;42889;51.112;13.772;2022-08-03T06:42:50;99266.00;;;22.54;56.63
39197;BME280;42889;51.112;13.772;2022-08-03T06:45:16;99270.59;;;22.72;56.26
39197;BME280;42889;51.112;13.772;2022-08-03T06:47:46;99269.13;;;22.88;55.08
39197;BME280;42889;51.112;13.772;2022-08-03T06:50:27;99269.72;;;23.02;54.13
39197;BME280;42889;51.112;13.772;2022-08-03T06:52:54;99279.53;;;23.21;53.45
39197;BME280;42889;51.112;13.772;2022-08-03T06:55:21;99280.13;;;23.35;53.65
39197;BME280;42889;51.112;13.772;2022-08-03T06:57:47;99278.25;;;23.47;53.10
39197;BME280;42889;51.112;13.772;2022-08-03T07:00:14;99275.63;;;23.64;52.19
39197;BME280;42889;51.112;13.772;2022-08-03T07:02:41;99270.38;;;23.74;52.57
39197;BME280;42889;51.112;13.772;2022-08-03T07:05:08;99277.03;;;23.90;51.60
39197;BME280;42889;51.112;13.772;2022-08-03T07:07:35;99278.31;;;23.99;51.07
39197;BME280;42889;51.112;13.772;2022-08-03T07:10:03;99281.63;;;24.13;50.62
39197;BME280;42889;51.112;13.772;2022-08-03T07:12:31;99277.66;;;24.21;50.22
39197;BME280;42889;51.112;13.772;2022-08-03T07:14:59;99277.75;;;24.37;50.73
39197;BME280;42889;51.112;13.772;2022-08-03T07:17:29;99283.53;;;24.53;50.09
39197;BME280;42889;51.112;13.772;2022-08-03T07:19:57;99283.47;;;24.64;49.60
39197;BME280;42889;51.112;13.772;2022-08-03T07:22:25;99280.00;;;24.69;49.76
39197;BME280;42889;51.112;13.772;2022-08-03T07:24:51;99284.03;;;24.78;48.82
39197;BME280;42889;51.112;13.772;2022-08-03T07:27:18;99283.94;;;24.90;48.32
39197;BME280;42889;51.112;13.772;2022-08-03T07:29:44;99275.19;;;24.93;49.04
39197;BME280;42889;51.112;13.772;2022-08-03T07:32:11;99280.31;;;25.18;49.34
39197;BME280;42889;51.112;13.772;2022-08-03T07:34:37;99282.47;;;25.33;47.71
39197;BME280;42889;51.112;13.772;2022-08-03T07:37:04;99276.69;;;25.51;48.33
39197;BME280;42889;51.112;13.772;2022-08-03T07:39:31;99280.63;;;25.55;47.10
39197;BME280;42889;51.112;13.772;2022-08-03T07:41:57;99272.47;;;25.65;47.23
39197;BME280;42889;51.112;13.772;2022-08-03T07:44:24;99283.09;;;25.73;47.06
39197;BME280;42889;51.112;13.772;2022-08-03T07:46:50;99285.25;;;25.88;46.61
39197;BME280;42889;51.112;13.772;2022-08-03T07:49:17;99281.03;;;26.02;46.70
39197;BME280;42889;51.112;13.772;2022-08-03T07:51:44;99277.56;;;26.12;46.87
39197;BME280;42889;51.112;13.772;2022-08-03T07:54:10;99288.59;;;26.34;47.05
39197;BME280;42889;51.112;13.772;2022-08-03T07:56:37;99284.41;;;26.80;46.42
39197;BME280;42889;51.112;13.772;2022-08-03T07:59:04;99282.09;;;26.99;44.80
39197;BME280;42889;51.112;13.772;2022-08-03T08:01:31;99278.69;;;27.19;43.54
39197;BME280;42889;51.112;13.772;2022-08-03T08:04:01;99271.31;;;27.30;44.80
39197;BME280;42889;51.112;13.772;2022-08-03T08:06:27;99276.06;;;27.35;43.17
39197;BME280;42889;51.112;13.772;2022-08-03T08:08:54;99268.22;;;27.21;42.61
39197;BME280;42889;51.112;13.772;2022-08-03T08:11:24;99269.38;;;27.30;43.39
39197;BME280;42889;51.112;13.772;2022-08-03T08:13:51;99260.09;;;27.84;43.42
39197;BME280;42889;51.112;13.772;2022-08-03T08:16:17;99264.28;;;27.92;41.81
39197;BME280;42889;51.112;13.772;2022-08-03T08:18:44;99261.59;;;28.17;41.15
39197;BME280;42889;51.112;13.772;2022-08-03T08:21:10;99264.09;;;28.14;41.35
39197;BME280;42889;51.112;13.772;2022-08-03T08:23:37;99259.19;;;28.31;41.19
39197;BME280;42889;51.112;13.772;2022-08-03T08:26:11;99266.19;;;28.49;39.88
39197;BME280;42889;51.112;13.772;2022-08-03T08:28:38;99265.38;;;28.58;39.81
39197;BME280;42889;51.112;13.772;2022-08-03T08:31:05;99255.19;;;29.40;38.71
39197;BME280;42889;51.112;13.772;2022-08-03T08:33:31;99251.94;;;30.18;36.66
39197;BME280;42889;51.112;13.772;2022-08-03T08:36:19;99263.13;;;31.31;33.99
39197;BME280;42889;51.112;13.772;2022-08-03T08:38:46;99250.25;;;32.17;33.23
39197;BME280;42889;51.112;13.772;2022-08-03T08:41:14;99249.28;;;33.21;31.92
39197;BME280;42889;51.112;13.772;2022-08-03T08:43:41;99252.31;;;33.58;31.51
39197;BME280;42889;51.112;13.772;2022-08-03T08:46:12;99254.81;;;34.00;30.20
39197;BME280;42889;51.112;13.772;2022-08-03T08:48:49;99257.66;;;35.23;28.98
39197;BME280;42889;51.112;13.772;2022-08-03T08:51:19;99253.69;;;36.26;27.66
39197;BME280;42889;51.112;13.772;2022-08-03T08:53:51;99251.53;;;36.05;28.46
39197;BME280;42889;51.112;13.772;2022-08-03T08:56:19;99253.00;;;36.03;27.22
39197;BME280;42889;51.112;13.772;2022-08-03T08:58:51;99254.59;;;36.52;26.61
39197;BME280;42889;51.112;13.772;2022-08-03T09:01:18;99253.41;;;36.27;26.36
39197;BME280;42889;51.112;13.772;2022-08-03T09:03:46;99248.63;;;36.36;26.80
39197;BME280;42889;51.112;13.772;2022-08-03T09:06:13;99252.31;;;36.98;25.96
39197;BME280;42889;51.112;13.772;2022-08-03T09:08:40;99249.81;;;36.53;26.52
39197;BME280;42889;51.112;13.772;2022-08-03T09:11:07;99253.91;;;37.59;24.58
39197;BME280;42889;51.112;13.772;2022-08-03T09:13:37;99247.88;;;37.87;24.47
39197;BME280;42889;51.112;13.772;2022-08-03T09:18:38;99258.44;;;39.12;23.07
39197;BME280;42889;51.112;13.772;2022-08-03T09:24:02;99252.56;;;39.25;22.73
39197;BME280;42889;51.112;13.772;2022-08-03T09:26:33;99244.69;;;39.64;22.04
39197;BME280;42889;51.112;13.772;2022-08-03T09:29:06;99251.50;;;39.18;21.76
39197;BME280;42889;51.112;13.772;2022-08-03T09:31:44;99247.88;;;39.75;21.70
39197;BME280;42889;51.112;13.772;2022-08-03T09:34:14;99244.69;;;39.19;22.73
39197;BME280;42889;51.112;13.772;2022-08-03T09:36:46;99239.41;;;38.25;23.15
39197;BME280;42889;51.112;13.772;2022-08-03T09:39:15;99237.72;;;38.03;23.63
39197;BME280;42889;51.112;13.772;2022-08-03T09:41:47;99238.91;;;38.94;22.86
39197;BME280;42889;51.112;13.772;2022-08-03T09:44:14;99246.56;;;39.27;21.60
39197;BME280;42889;51.112;13.772;2022-08-03T09:46:55;99248.47;;;39.93;21.31
39197;BME280;42889;51.112;13.772;2022-08-03T09:49:22;99247.88;;;39.99;21.44
39197;BME280;42889;51.112;13.772;2022-08-03T09:51:49;99245.19;;;40.03;20.96
39197;BME280;42889;51.112;13.772;2022-08-03T09:54:37;99245.06;;;39.63;21.14
39197;BME280;42889;51.112;13.772;2022-08-03T09:57:03;99251.28;;;40.05;21.17
39197;BME280;42889;51.112;13.772;2022-08-03T09:59:31;99236.97;;;40.87;20.39
39197;BME280;42889;51.112;13.772;2022-08-03T10:01:59;99238.41;;;40.81;19.93
39197;BME280;42889;51.112;13.772;2022-08-03T10:04:27;99238.84;;;40.95;19.40
39197;BME280;42889;51.112;13.772;2022-08-03T10:09:28;99225.94;;;40.29;20.03
39197;BME280;42889;51.112;13.772;2022-08-03T10:11:55;99224.06;;;40.21;20.26
39197;BME280;42889;51.112;13.772;2022-08-03T10:14:22;99226.19;;;40.12;20.17
39197;BME280;42889;51.112;13.772;2022-08-03T10:16:49;99225.56;;;39.82;18.96
39197;BME280;42889;51.112;13.772;2022-08-03T10:19:15;99218.50;;;40.62;17.33
39197;BME280;42889;51.112;13.772;2022-08-03T10:21:49;99222.41;;;40.85;17.98
39197;BME280;42889;51.112;13.772;2022-08-03T10:24:19;99230.38;;;40.55;18.90
39197;BME280;42889;51.112;13.772;2022-08-03T10:26:50;99217.00;;;40.03;19.53
39197;BME280;42889;51.112;13.772;2022-08-03T10:29:20;99208.41;;;40.36;19.47
39197;BME280;42889;51.112;13.772;2022-08-03T10:31:52;99210.53;;;40.51;19.30
39197;BME280;42889;51.112;13.772;2022-08-03T10:34:32;99204.28;;;41.14;19.88
39197;BME280;42889;51.112;13.772;2022-08-03T10:37:02;99218.72;;;41.84;18.14
39197;BME280;42889;51.112;13.772;2022-08-03T10:39:33;99212.69;;;41.54;18.40
39197;BME280;42889;51.112;13.772;2022-08-03T10:42:02;99218.00;;;41.88;17.97
39197;BME280;42889;51.112;13.772;2022-08-03T10:44:40;99209.72;;;40.39;19.01
39197;BME280;42889;51.112;13.772;2022-08-03T10:47:08;99204.69;;;41.28;18.85
39197;BME280;42889;51.112;13.772;2022-08-03T10:49:36;99207.94;;;41.15;18.38
39197;BME280;42889;51.112;13.772;2022-08-03T10:52:04;99200.91;;;41.68;18.28
39197;BME280;42889;51.112;13.772;2022-08-03T10:54:45;99199.16;;;41.32;18.44
39197;BME280;42889;51.112;13.772;2022-08-03T11:00:22;99204.81;;;42.81;17.13
39197;BME280;42889;51.112;13.772;2022-08-03T11:03:07;99204.81;;;42.81;17.13
39197;BME280;42889;51.112;13.772;2022-08-03T11:05:37;63530.91;;;-146.37;100.00
39197;BME280;42889;51.112;13.772;2022-08-03T11:11:02;99202.81;;;43.24;16.37
39197;BME280;42889;51.112;13.772;2022-08-03T11:14:03;99193.97;;;41.97;16.59
39197;BME280;42889;51.112;13.772;2022-08-03T11:16:42;99192.88;;;42.92;16.08
39197;BME280;42889;51.112;13.772;2022-08-03T11:19:16;99194.56;;;41.87;17.03
39197;BME280;42889;51.112;13.772;2022-08-03T11:27:22;99185.16;;;42.34;16.14
39197;BME280;42889;51.112;13.772;2022-08-03T11:35:22;99179.97;;;42.55;15.60
39197;BME280;42889;51.112;13.772;2022-08-03T11:42:58;99181.75;;;43.22;16.44
39197;BME280;42889;51.112;13.772;2022-08-03T11:45:25;99171.75;;;42.66;16.63
39197;BME280;42889;51.112;13.772;2022-08-03T11:47:53;99179.25;;;42.97;16.12
39197;BME280;42889;51.112;13.772;2022-08-03T11:50:20;99166.78;;;42.44;16.21
39197;BME280;42889;51.112;13.772;2022-08-03T11:52:48;99169.78;;;43.09;16.06
39197;BME280;42889;51.112;13.772;2022-08-03T11:55:17;99166.19;;;43.12;15.93
39197;BME280;42889;51.112;13.772;2022-08-03T11:57:46;99160.41;;;42.66;15.83
39197;BME280;42889;51.112;13.772;2022-08-03T12:00:33;99159.56;;;42.46;15.75
39197;BME280;42889;51.112;13.772;2022-08-03T12:03:11;99159.56;;;42.46;15.75
39197;BME280;42889;51.112;13.772;2022-08-03T12:10:55;99163.81;;;42.36;15.45
39197;BME280;42889;51.112;13.772;2022-08-03T12:13:22;99158.97;;;41.70;16.56
39197;BME280;42889;51.112;13.772;2022-08-03T12:16:17;99168.28;;;41.39;16.62
39197;BME280;42889;51.112;13.772;2022-08-03T12:19:01;99163.66;;;41.03;16.31
39197;BME280;42889;51.112;13.772;2022-08-03T12:21:29;99156.91;;;41.83;16.29
39197;BME280;42889;51.112;13.772;2022-08-03T12:23:57;99148.53;;;42.41;15.71
39197;BME280;42889;51.112;13.772;2022-08-03T12:26:26;99155.09;;;42.84;15.09
39197;BME280;42889;51.112;13.772;2022-08-03T12:28:53;99145.94;;;43.56;14.10
39197;BME280;42889;51.112;13.772;2022-08-03T12:31:20;99150.38;;;43.53;14.25
39197;BME280;42889;51.112;13.772;2022-08-03T12:33:58;99153.69;;;43.82;13.62
39197;BME280;42889;51.112;13.772;2022-08-03T12:36:28;99152.16;;;44.14;14.19
39197;BME280;42889;51.112;13.772;2022-08-03T12:38:57;99143.59;;;43.84;13.36
39197;BME280;42889;51.112;13.772;2022-08-03T12:44:03;99142.56;;;43.47;14.48
39197;BME280;42889;51.112;13.772;2022-08-03T12:46:35;99144.63;;;43.99;14.20
39197;BME280;42889;51.112;13.772;2022-08-03T12:49:12;99134.09;;;44.00;14.09
39197;BME280;42889;51.112;13.772;2022-08-03T12:52:04;99127.19;;;43.97;14.03
39197;BME280;42889;51.112;13.772;2022-08-03T12:54:58;99135.47;;;44.09;14.24
39197;BME280;42889;51.112;13.772;2022-08-03T12:57:39;99133.16;;;43.65;14.39
39197;BME280;42889;51.112;13.772;2022-08-03T13:00:14;99132.69;;;43.86;14.27
39197;BME280;42889;51.112;13.772;2022-08-03T13:03:05;99134.69;;;42.94;15.08
39197;BME280;42889;51.112;13.772;2022-08-03T13:05:52;99130.06;;;43.74;14.05
39197;BME280;42889;51.112;13.772;2022-08-03T13:08:24;99116.34;;;42.10;14.80
39197;BME280;42889;51.112;13.772;2022-08-03T13:10:56;99127.91;;;42.79;14.92
39197;BME280;42889;51.112;13.772;2022-08-03T13:13:38;99123.28;;;43.56;14.30
39197;BME280;42889;51.112;13.772;2022-08-03T13:16:05;99134.00;;;43.43;13.95
39197;BME280;42889;51.112;13.772;2022-08-03T13:18:42;99124.69;;;43.43;13.65
39197;BME280;42889;51.112;13.772;2022-08-03T13:21:26;99128.50;;;42.88;14.19
39197;BME280;42889;51.112;13.772;2022-08-03T13:23:57;99121.31;;;43.37;14.49
39197;BME280;42889;51.112;13.772;2022-08-03T13:26:50;99127.63;;;41.12;15.18
39197;BME280;42889;51.112;13.772;2022-08-03T13:29:22;99128.63;;;41.67;15.49
39197;BME280;42889;51.112;13.772;2022-08-03T13:31:50;99117.06;;;42.07;15.32
39197;BME280;42889;51.112;13.772;2022-08-03T13:37:44;99111.63;;;40.88;16.22
39197;BME280;42889;51.112;13.772;2022-08-03T13:40:22;99112.56;;;40.92;16.29
39197;BME280;42889;51.112;13.772;2022-08-03T13:43:18;99111.59;;;41.32;15.72
39197;BME280;42889;51.112;13.772;2022-08-03T13:45:55;99108.97;;;42.06;15.26
39197;BME280;42889;51.112;13.772;2022-08-03T13:52:18;99103.31;;;42.60;14.95
39197;BME280;42889;51.112;13.772;2022-08-03T13:55:01;99099.97;;;42.97;14.35
39197;BME280;42889;51.112;13.772;2022-08-03T14:04:39;99094.03;;;42.83;14.59
39197;BME280;42889;51.112;13.772;2022-08-03T14:07:05;99085.25;;;42.30;14.70
39197;BME280;42889;51.112;13.772;2022-08-03T14:09:35;99089.47;;;41.50;15.55
39197;BME280;42889;51.112;13.772;2022-08-03T14:12:04;99087.28;;;40.40;16.16